createdAt,value
2024-02-29T00:03:05.327Z,7.22
2024-02-29T00:06:36.293Z,7.25
2024-02-29T00:10:06.395Z,7.25
2024-02-29T00:13:35.328Z,7.25
2024-02-29T00:17:08.033Z,7.24
2024-02-29T00:20:37.322Z,7.24
2024-02-29T00:24:08.368Z,7.26
2024-02-29T00:27:39.345Z,7.26
2024-02-29T00:31:10.657Z,7.29
2024-02-29T00:34:43.723Z,7.30
2024-02-29T00:38:04.290Z,7.32
2024-02-29T00:41:35.354Z,7.32
2024-02-29T00:45:05.264Z,7.31
2024-02-29T00:48:38.354Z,7.29
2024-02-29T00:52:01.460Z,7.31
2024-02-29T00:55:24.300Z,7.32
2024-02-29T00:58:57.302Z,7.34
2024-02-29T01:02:30.263Z,7.34
2024-02-29T01:06:03.287Z,7.35
2024-02-29T01:09:36.377Z,7.29
2024-02-29T01:13:09.294Z,7.21
2024-02-29T01:16:39.231Z,7.12
2024-02-29T01:20:11.276Z,7.09
2024-02-29T01:23:40.203Z,7.07
2024-02-29T01:27:09.186Z,7.09
2024-02-29T01:30:42.226Z,7.10
2024-02-29T01:34:18.029Z,7.14
2024-02-29T01:37:46.235Z,7.15
2024-02-29T01:41:15.181Z,7.15
2024-02-29T01:44:45.243Z,7.14
2024-02-29T01:48:15.327Z,7.17
2024-02-29T01:51:43.240Z,7.19
2024-02-29T01:55:13.220Z,7.19
2024-02-29T01:59:01.587Z,7.21
2024-02-29T02:02:36.159Z,7.18
2024-02-29T02:06:09.216Z,7.19
2024-02-29T02:12:54.207Z,7.20
2024-02-29T02:16:27.181Z,7.18
2024-02-29T02:19:42.099Z,7.18
2024-02-29T02:22:51.101Z,7.16
2024-02-29T02:26:20.143Z,7.15
2024-02-29T02:29:42.168Z,7.13
2024-02-29T02:33:11.198Z,7.14
2024-02-29T02:36:45.134Z,7.17
2024-02-29T02:40:15.197Z,7.21
2024-02-29T02:43:44.109Z,7.20
2024-02-29T02:47:17.428Z,7.19
2024-02-29T02:50:47.200Z,7.18
2024-02-29T02:54:16.102Z,7.16
2024-02-29T02:57:47.196Z,7.19
2024-02-29T03:01:10.491Z,7.22
2024-02-29T03:04:27.956Z,7.24
2024-02-29T03:07:58.146Z,7.25
2024-02-29T03:11:31.259Z,7.24
2024-02-29T03:14:56.029Z,7.22
2024-02-29T03:18:26.082Z,7.17
2024-02-29T03:21:47.183Z,7.16
2024-02-29T03:25:16.168Z,7.16
2024-02-29T03:28:45.126Z,7.19
2024-02-29T03:32:14.149Z,7.17
2024-02-29T03:35:48.099Z,7.17
2024-02-29T03:39:11.032Z,7.17
2024-02-29T03:42:36.135Z,7.12
2024-02-29T03:45:56.132Z,7.07
2024-02-29T03:49:28.088Z,7.07
2024-02-29T03:52:48.072Z,7.07
2024-02-29T03:56:17.122Z,7.10
2024-02-29T03:59:46.119Z,7.09
2024-02-29T04:03:16.072Z,7.07
2024-02-29T04:06:48.096Z,7.03
2024-02-29T04:10:12.285Z,7.05
2024-02-29T04:13:40.982Z,7.09
2024-02-29T04:17:09.174Z,7.12
2024-02-29T04:20:39.066Z,7.12
2024-02-29T04:24:08.056Z,7.10
2024-02-29T04:27:36.156Z,7.03
2024-02-29T04:31:06.043Z,7.02
2024-02-29T04:34:38.058Z,6.99
2024-02-29T04:38:07.066Z,6.99
2024-02-29T04:41:39.135Z,7.00
2024-02-29T04:45:08.053Z,7.00
2024-02-29T04:48:41.007Z,7.03
2024-02-29T04:52:16.116Z,6.99
2024-02-29T04:55:45.054Z,6.97
2024-02-29T04:59:18.015Z,6.95
2024-02-29T05:02:48.043Z,6.96
2024-02-29T05:06:16.980Z,6.95
2024-02-29T05:09:48.925Z,6.92
2024-02-29T05:13:19.112Z,6.94
2024-02-29T05:16:48.090Z,6.95
2024-02-29T05:20:17.030Z,6.92
2024-02-29T05:23:47.940Z,6.89
2024-02-29T05:27:20.052Z,6.89
2024-02-29T05:30:50.054Z,6.89
2024-02-29T05:34:19.195Z,6.91
2024-02-29T05:37:48.009Z,6.91
2024-02-29T05:41:17.239Z,6.77
2024-02-29T05:44:48.992Z,6.74
2024-02-29T05:48:18.989Z,6.71
2024-02-29T05:51:52.768Z,6.72
2024-02-29T05:55:20.089Z,6.74
2024-02-29T05:58:49.023Z,6.80
2024-02-29T06:02:20.973Z,6.84
2024-02-29T06:05:52.941Z,6.88
2024-02-29T06:09:22.933Z,6.88
2024-02-29T06:14:03.935Z,6.92
2024-02-29T06:17:33.818Z,6.94
2024-02-29T06:21:02.807Z,6.96
2024-02-29T06:24:35.740Z,6.93
2024-02-29T06:28:06.872Z,6.90
2024-02-29T06:31:35.871Z,6.86
2024-02-29T06:35:08.794Z,6.82
2024-02-29T06:38:36.729Z,6.79
2024-02-29T06:42:06.920Z,6.83
2024-02-29T06:45:27.753Z,6.88
2024-02-29T06:48:34.084Z,6.89
2024-02-29T06:51:56.873Z,6.89
2024-02-29T06:55:26.857Z,6.91
2024-02-29T06:58:56.861Z,6.88
2024-02-29T07:02:28.745Z,6.84
2024-02-29T07:05:58.843Z,6.85
2024-02-29T07:09:27.709Z,6.88
2024-02-29T07:12:56.808Z,6.92
2024-02-29T07:16:27.730Z,6.95
2024-02-29T07:19:58.771Z,7.00
2024-02-29T07:23:04.644Z,7.05
2024-02-29T07:26:21.851Z,7.09
2024-02-29T07:29:39.187Z,7.10
2024-02-29T07:32:25.279Z,7.15
2024-02-29T07:35:32.880Z,7.15
2024-02-29T07:38:40.267Z,7.16
2024-02-29T07:43:10.511Z,7.22
2024-02-29T07:46:12.145Z,7.22
2024-02-29T07:49:03.974Z,7.22
2024-02-29T07:52:01.687Z,7.24
2024-02-29T07:55:16.080Z,7.28
2024-02-29T07:58:32.839Z,7.30
2024-02-29T08:02:00.892Z,7.34
2024-02-29T08:05:27.672Z,7.36
2024-02-29T08:08:57.797Z,7.40
2024-02-29T08:12:25.682Z,7.40
2024-02-29T08:15:47.275Z,7.39
2024-02-29T08:19:13.682Z,7.39
2024-02-29T08:22:42.023Z,7.41
2024-02-29T08:26:12.624Z,7.46
2024-02-29T08:29:39.661Z,7.53
2024-02-29T08:33:07.765Z,7.54
